Time;durP1;ratioP1;P1;durP2;ratioP2;P2;SDS_P1;SDS_P2;PMS_P1;PMS_P2;Temp;Humidity;BMP_temperature;BMP_pressure;BME280_temperature;BME280_humidity;BME280_pressure;Samples;Min_cycle;Max_cycle;Signal;HPM_P1;HPM_P2
2021/12/16 00:01:48;;;;;;;61.90;27.53;;;;;;;;;;5015800;28;20373;-52
2021/12/16 00:09:27;;;;;;;60.33;29.43;;;;;;;;;;5015658;28;20409;-51
2021/12/16 00:35:46;;;;;;;67.40;34.10;;;;;;;;;;5014353;28;20415;-50
2021/12/16 00:38:12;;;;;;;67.47;31.83;;;;;;;;;;5014978;28;20407;-50
2021/12/16 00:40:40;;;;;;;74.33;28.50;;;;;;;;;;5015033;28;20406;-50
2021/12/16 00:43:15;;;;;;;67.03;31.40;;;;;;;;;;5015011;28;20981;-50
2021/12/16 00:48:49;;;;;;;65.33;31.50;;;;;;;;;;5015001;28;20395;-52
2021/12/16 00:54:11;;;;;;;74.60;32.10;;;;;;;;;;5014878;28;20406;-49
2021/12/16 00:56:47;;;;;;;63.03;31.17;;;;;;;;;;5013993;28;20425;-49
2021/12/16 00:59:15;;;;;;;63.63;29.40;;;;;;;;;;5014694;28;20395;-51
2021/12/16 01:52:39;;;;;;;68.20;32.80;;;;;;;;;;5013796;28;20727;-49
2021/12/16 01:55:26;;;;;;;75.27;31.77;;;;;;;;;;5012957;28;20554;-50
2021/12/16 01:58:16;;;;;;;75.27;32.87;;;;;;;;;;5013686;28;20891;-50
2021/12/16 02:01:00;;;;;;;80.07;33.47;;;;;;;;;;5012568;28;20417;-49
2021/12/16 02:03:39;;;;;;;74.80;32.50;;;;;;;;;;5013033;28;20455;-49
2021/12/16 02:06:23;;;;;;;72.33;32.17;;;;;;;;;;5012410;28;20419;-50
2021/12/16 02:08:50;;;;;;;76.67;34.27;;;;;;;;;;5013266;28;20407;-49
2021/12/16 02:28:18;;;;;;;88.03;34.97;;;;;;;;;;5013227;28;20545;-49
2021/12/16 02:34:17;;;;;;;96.67;38.13;;;;;;;;;;5013233;28;20407;-51
2021/12/16 02:36:43;;;;;;;97.80;36.63;;;;;;;;;;5011721;28;20953;-50
2021/12/16 02:39:15;;;;;;;92.40;36.47;;;;;;;;;;5012886;28;20481;-50
2021/12/16 02:41:42;;;;;;;98.07;39.07;;;;;;;;;;5012887;28;20399;-49
2021/12/16 02:49:27;;;;;;;93.13;35.77;;;;;;;;;;5013133;28;20423;-50
2021/12/16 02:51:53;;;;;;;93.97;39.47;;;;;;;;;;5012657;28;20868;-50
2021/12/16 02:54:19;;;;;;;99.30;37.10;;;;;;;;;;5012672;28;20411;-50
2021/12/16 02:56:45;;;;;;;96.27;37.40;;;;;;;;;;5011739;28;20422;-49
2021/12/16 02:59:11;;;;;;;89.70;35.77;;;;;;;;;;5012602;28;20403;-51
2021/12/16 03:01:37;;;;;;;112.97;39.77;;;;;;;;;;5012489;28;20486;-49
2021/12/16 03:04:05;;;;;;;94.63;37.47;;;;;;;;;;5012406;28;20546;-50
2021/12/16 03:06:32;;;;;;;95.10;37.17;;;;;;;;;;5011667;28;20437;-51
2021/12/16 03:08:59;;;;;;;97.43;37.00;;;;;;;;;;5012380;28;20886;-51
2021/12/16 03:21:38;;;;;;;86.60;32.80;;;;;;;;;;5012245;28;20412;-50
2021/12/16 03:34:27;;;;;;;105.03;36.50;;;;;;;;;;5012042;28;20438;-50
2021/12/16 03:37:15;;;;;;;95.97;36.20;;;;;;;;;;5011646;28;20489;-52
2021/12/16 03:40:01;;;;;;;85.43;33.60;;;;;;;;;;5012119;28;20771;-49
2021/12/16 03:42:33;;;;;;;86.67;35.70;;;;;;;;;;5011747;28;20446;-50
2021/12/16 03:45:06;;;;;;;92.10;35.00;;;;;;;;;;5011208;28;20477;-49
2021/12/16 03:47:32;;;;;;;89.40;34.23;;;;;;;;;;5012003;28;20408;-50
2021/12/16 03:49:58;;;;;;;84.90;33.23;;;;;;;;;;5011863;28;20438;-50
2021/12/16 03:52:25;;;;;;;84.03;33.40;;;;;;;;;;5011981;28;20407;-50
2021/12/16 03:54:53;;;;;;;93.13;34.37;;;;;;;;;;5011014;28;20440;-49
2021/12/16 03:57:21;;;;;;;93.10;35.87;;;;;;;;;;5012012;28;20410;-50
2021/12/16 03:59:48;;;;;;;84.90;33.33;;;;;;;;;;5012001;28;20787;-49
2021/12/16 04:02:17;;;;;;;89.63;35.03;;;;;;;;;;5011847;28;20407;-50
2021/12/16 04:04:43;;;;;;;91.47;34.07;;;;;;;;;;5011035;28;20450;-50
2021/12/16 04:07:10;;;;;;;81.80;33.90;;;;;;;;;;5011634;28;20427;-50
2021/12/16 04:09:36;;;;;;;89.57;32.53;;;;;;;;;;5011663;28;20398;-49
2021/12/16 04:12:09;;;;;;;79.23;35.53;;;;;;;;;;5011756;28;20893;-49
2021/12/16 04:14:36;;;;;;;86.70;34.57;;;;;;;;;;5011144;28;20400;-49
2021/12/16 04:17:03;;;;;;;82.60;33.93;;;;;;;;;;5011546;28;20939;-49
2021/12/16 04:19:31;;;;;;;79.17;33.80;;;;;;;;;;5011689;28;20412;-50
2021/12/16 04:22:06;;;;;;;94.63;37.50;;;;;;;;;;5011469;28;20414;-50
2021/12/16 04:24:32;;;;;;;91.33;36.10;;;;;;;;;;5010951;28;20468;-52
2021/12/16 04:26:59;;;;;;;94.27;35.70;;;;;;;;;;5011413;28;20485;-51
2021/12/16 04:29:26;;;;;;;90.30;33.53;;;;;;;;;;5011467;28;20918;-50
2021/12/16 04:31:53;;;;;;;85.63;34.17;;;;;;;;;;5012281;28;20403;-50
2021/12/16 04:34:19;;;;;;;78.77;33.80;;;;;;;;;;5011507;28;20756;-50
2021/12/16 04:36:46;;;;;;;81.90;33.87;;;;;;;;;;5010643;28;20923;-50
2021/12/16 04:39:15;;;;;;;87.20;36.90;;;;;;;;;;5015124;28;20499;-50
2021/12/16 04:41:42;;;;;;;80.37;33.97;;;;;;;;;;5015093;28;20523;-52
2021/12/16 04:44:10;;;;;;;86.13;35.77;;;;;;;;;;5015158;28;20455;-50
2021/12/16 04:46:36;;;;;;;88.80;35.90;;;;;;;;;;5014135;28;20577;-50
2021/12/16 04:49:03;;;;;;;97.87;34.87;;;;;;;;;;5014848;28;20771;-50
2021/12/16 04:51:31;;;;;;;104.10;36.70;;;;;;;;;;5014823;28;20489;-49
2021/12/16 04:53:57;;;;;;;89.67;35.93;;;;;;;;;;5014849;28;20899;-50
2021/12/16 04:56:23;;;;;;;96.40;34.97;;;;;;;;;;5014077;28;20441;-51
2021/12/16 04:58:50;;;;;;;103.37;36.57;;;;;;;;;;5014813;28;20417;-50
2021/12/16 05:01:17;;;;;;;98.93;36.33;;;;;;;;;;5014730;28;20834;-52
2021/12/16 05:03:43;;;;;;;86.67;34.93;;;;;;;;;;5014410;28;20463;-51
2021/12/16 05:06:09;;;;;;;85.37;35.97;;;;;;;;;;5013236;28;20430;-50
2021/12/16 05:08:36;;;;;;;86.53;34.07;;;;;;;;;;5014600;28;20817;-49
2021/12/16 05:11:03;;;;;;;88.63;35.63;;;;;;;;;;5014558;28;20425;-50
2021/12/16 05:13:30;;;;;;;95.70;34.87;;;;;;;;;;5014444;28;20444;-50
2021/12/16 05:16:01;;;;;;;87.37;33.93;;;;;;;;;;5013609;28;20833;-49
2021/12/16 05:18:32;;;;;;;97.17;37.07;;;;;;;;;;5014349;28;20406;-50
2021/12/16 05:20:59;;;;;;;88.70;38.10;;;;;;;;;;5014295;28;20782;-50
2021/12/16 05:28:37;;;;;;;86.20;34.70;;;;;;;;;;5014123;28;20798;-49
2021/12/16 05:31:03;;;;;;;91.67;34.47;;;;;;;;;;5014069;28;20409;-50
2021/12/16 05:33:30;;;;;;;91.60;33.87;;;;;;;;;;5014139;28;20791;-50
2021/12/16 05:35:56;;;;;;;92.27;35.87;;;;;;;;;;5013187;28;20423;-49
2021/12/16 05:38:23;;;;;;;92.27;35.70;;;;;;;;;;5014027;28;20891;-52
2021/12/16 05:40:49;;;;;;;80.63;32.50;;;;;;;;;;5013947;28;20485;-50
2021/12/16 05:43:17;;;;;;;82.83;34.80;;;;;;;;;;5014327;28;20538;-50
2021/12/16 05:45:44;;;;;;;92.47;35.90;;;;;;;;;;5013291;28;20439;-50
2021/12/16 05:48:11;;;;;;;84.47;32.47;;;;;;;;;;5013527;28;20431;-49
2021/12/16 05:50:40;;;;;;;94.80;37.03;;;;;;;;;;5013131;28;20771;-50
2021/12/16 05:53:07;;;;;;;93.13;31.93;;;;;;;;;;5013716;28;20475;-49
2021/12/16 05:55:33;;;;;;;86.03;33.90;;;;;;;;;;5013054;28;20427;-50
2021/12/16 05:58:04;;;;;;;83.37;33.37;;;;;;;;;;5013455;28;20994;-50
2021/12/16 06:00:33;;;;;;;85.37;34.60;;;;;;;;;;5013724;28;20402;-50
2021/12/16 06:02:59;;;;;;;93.47;34.90;;;;;;;;;;5013439;28;20423;-50
2021/12/16 06:05:25;;;;;;;86.57;33.67;;;;;;;;;;5012907;28;20439;-50
2021/12/16 06:07:51;;;;;;;83.00;34.97;;;;;;;;;;5013392;28;20501;-50
2021/12/16 06:12:58;;;;;;;93.27;34.07;;;;;;;;;;5013578;28;20413;-50
2021/12/16 06:16:00;;;;;;;87.30;34.47;;;;;;;;;;5012618;28;20469;-50
2021/12/16 06:29:08;;;;;;;69.37;30.90;;;;;;;;;;5012886;28;20422;-49
2021/12/16 06:31:33;;;;;;;86.53;32.30;;;;;;;;;;5013082;28;20402;-51
2021/12/16 06:33:59;;;;;;;108.60;34.93;;;;;;;;;;5012941;28;20478;-50
2021/12/16 06:36:26;;;;;;;82.80;34.17;;;;;;;;;;5012161;28;20430;-50
2021/12/16 06:38:52;;;;;;;102.37;38.40;;;;;;;;;;5012949;28;20901;-50
2021/12/16 06:41:19;;;;;;;101.30;34.47;;;;;;;;;;5012964;28;20401;-50
2021/12/16 06:43:47;;;;;;;95.17;34.00;;;;;;;;;;5012675;28;20533;-50
2021/12/16 06:46:17;;;;;;;102.60;36.40;;;;;;;;;;5012010;28;20430;-50
2021/12/16 06:48:46;;;;;;;103.60;36.77;;;;;;;;;;5012754;28;20405;-50
2021/12/16 06:51:20;;;;;;;104.30;36.97;;;;;;;;;;5012737;28;20963;-50
2021/12/16 06:54:03;;;;;;;99.23;36.60;;;;;;;;;;5012695;28;20403;-50
2021/12/16 06:56:39;;;;;;;110.30;38.47;;;;;;;;;;5011879;28;20429;-50
2021/12/16 06:59:22;;;;;;;95.00;33.33;;;;;;;;;;5012626;28;20847;-50
2021/12/16 07:02:05;;;;;;;108.93;36.80;;;;;;;;;;5012221;28;20408;-49
2021/12/16 07:04:32;;;;;;;97.30;35.13;;;;;;;;;;5011847;28;20479;-54
2021/12/16 07:06:58;;;;;;;95.83;33.77;;;;;;;;;;5012355;28;20431;-49
2021/12/16 07:09:25;;;;;;;99.97;35.40;;;;;;;;;;5012424;28;20488;-49
2021/12/16 07:11:53;;;;;;;96.67;35.10;;;;;;;;;;5012543;28;20402;-50
2021/12/16 07:14:23;;;;;;;99.37;35.83;;;;;;;;;;5012310;28;20789;-52
2021/12/16 07:16:54;;;;;;;106.40;35.47;;;;;;;;;;5011481;28;20439;-52
2021/12/16 07:19:20;;;;;;;108.37;35.07;;;;;;;;;;5012295;28;20489;-50
2021/12/16 07:21:46;;;;;;;97.77;35.50;;;;;;;;;;5012354;28;20485;-50
2021/12/16 07:24:14;;;;;;;108.00;35.87;;;;;;;;;;5012061;28;20456;-50
2021/12/16 07:26:39;;;;;;;98.77;35.17;;;;;;;;;;5011392;28;20771;-50
2021/12/16 07:29:06;;;;;;;95.10;36.00;;;;;;;;;;5012078;28;20426;-51
2021/12/16 07:31:33;;;;;;;97.97;36.07;;;;;;;;;;5012050;28;20946;-50
2021/12/16 07:34:00;;;;;;;102.80;34.93;;;;;;;;;;5012035;28;20402;-50
2021/12/16 07:36:27;;;;;;;103.33;35.17;;;;;;;;;;5011336;28;20422;-50
2021/12/16 07:38:54;;;;;;;81.07;35.50;;;;;;;;;;5012200;28;20790;-49
2021/12/16 07:41:24;;;;;;;97.13;33.83;;;;;;;;;;5012019;28;20917;-49
2021/12/16 07:46:21;;;;;;;98.20;35.87;;;;;;;;;;5011141;28;20436;-50
2021/12/16 07:48:49;;;;;;;86.47;35.07;;;;;;;;;;5011980;28;20478;-50
2021/12/16 07:51:15;;;;;;;99.20;38.20;;;;;;;;;;5011969;28;20397;-50
2021/12/16 07:53:41;;;;;;;79.23;32.57;;;;;;;;;;5011939;28;20410;-50
2021/12/16 07:56:08;;;;;;;99.83;37.73;;;;;;;;;;5011082;28;20426;-50
2021/12/16 07:58:34;;;;;;;119.83;40.90;;;;;;;;;;5011770;28;20449;-51
2021/12/16 08:01:00;;;;;;;125.87;40.07;;;;;;;;;;5010049;28;20462;-50
2021/12/16 08:03:33;;;;;;;97.03;35.53;;;;;;;;;;5011403;28;20450;-50
2021/12/16 08:06:00;;;;;;;106.80;40.00;;;;;;;;;;5010212;28;20464;-50
2021/12/16 08:08:26;;;;;;;107.60;39.27;;;;;;;;;;5011107;28;20403;-51
2021/12/16 08:10:54;;;;;;;105.67;38.57;;;;;;;;;;5010484;28;20406;-50
2021/12/16 08:13:22;;;;;;;94.07;35.87;;;;;;;;;;5011951;28;20887;-50
2021/12/16 08:15:48;;;;;;;100.93;37.47;;;;;;;;;;5017356;28;20445;-50
2021/12/16 08:18:15;;;;;;;99.17;37.17;;;;;;;;;;5021831;28;20515;-50
2021/12/16 08:20:42;;;;;;;108.07;37.60;;;;;;;;;;5015383;28;20403;-50
2021/12/16 08:23:08;;;;;;;108.73;39.07;;;;;;;;;;5015168;28;20528;-51
2021/12/16 08:25:35;;;;;;;94.77;35.60;;;;;;;;;;5014640;28;20500;-50
2021/12/16 08:28:03;;;;;;;82.60;35.00;;;;;;;;;;5014430;28;20422;-50
2021/12/16 08:30:30;;;;;;;104.13;35.33;;;;;;;;;;5015227;28;20929;-52
2021/12/16 08:32:57;;;;;;;98.60;35.20;;;;;;;;;;5015240;28;20403;-50
2021/12/16 08:35:23;;;;;;;106.40;35.63;;;;;;;;;;5014460;28;20429;-50
2021/12/16 08:37:49;;;;;;;88.23;34.13;;;;;;;;;;5015050;28;20842;-51
2021/12/16 08:40:17;;;;;;;85.67;34.70;;;;;;;;;;5014955;28;20403;-50
2021/12/16 08:42:44;;;;;;;88.87;33.67;;;;;;;;;;5014984;28;20399;-50
2021/12/16 08:45:15;;;;;;;72.20;31.23;;;;;;;;;;5014172;28;20490;-52
2021/12/16 08:47:41;;;;;;;81.43;32.73;;;;;;;;;;5014965;28;20399;-51
2021/12/16 08:50:09;;;;;;;95.93;34.70;;;;;;;;;;5015108;28;20433;-52
2021/12/16 08:52:35;;;;;;;86.80;35.90;;;;;;;;;;5014846;28;20434;-51
2021/12/16 08:55:01;;;;;;;84.27;33.97;;;;;;;;;;5013950;28;20457;-52
2021/12/16 08:57:28;;;;;;;86.73;34.43;;;;;;;;;;5015775;28;20399;-50
2021/12/16 08:59:56;;;;;;;90.43;33.43;;;;;;;;;;5016158;28;20419;-50
2021/12/16 09:02:22;;;;;;;83.03;34.70;;;;;;;;;;5015879;28;20403;-50
2021/12/16 09:04:49;;;;;;;85.90;33.60;;;;;;;;;;5015266;28;20468;-50
2021/12/16 09:07:16;;;;;;;91.03;34.03;;;;;;;;;;5015677;28;20409;-50
2021/12/16 09:09:54;;;;;;;99.27;36.37;;;;;;;;;;5015649;28;20399;-50
2021/12/16 09:12:48;;;;;;;96.87;34.97;;;;;;;;;;5015997;28;20433;-50
2021/12/16 09:15:10;;;;;;;86.93;33.53;;;;;;;;;;5014987;28;20435;-50
2021/12/16 09:17:37;;;;;;;94.20;34.70;;;;;;;;;;5015288;28;20409;-50
2021/12/16 09:20:05;;;;;;;91.03;36.50;;;;;;;;;;5015233;28;20414;-50
2021/12/16 09:22:31;;;;;;;89.87;34.77;;;;;;;;;;5015393;28;20419;-50
2021/12/16 09:24:58;;;;;;;93.57;33.13;;;;;;;;;;5014612;28;20487;-52
2021/12/16 09:27:26;;;;;;;91.77;34.27;;;;;;;;;;5015358;28;20411;-50
2021/12/16 09:29:54;;;;;;;86.40;34.17;;;;;;;;;;5015155;28;20408;-50
2021/12/16 09:32:24;;;;;;;99.47;35.30;;;;;;;;;;5015485;28;20406;-50
2021/12/16 09:34:50;;;;;;;98.87;35.70;;;;;;;;;;5014180;28;20412;-50
2021/12/16 09:37:16;;;;;;;90.13;33.00;;;;;;;;;;5015098;28;20438;-50
2021/12/16 09:39:43;;;;;;;102.03;34.70;;;;;;;;;;5015277;28;20784;-50
2021/12/16 09:42:09;;;;;;;98.70;35.90;;;;;;;;;;5015154;28;20403;-50
2021/12/16 09:44:36;;;;;;;104.77;35.07;;;;;;;;;;5014469;28;20477;-50
2021/12/16 09:47:05;;;;;;;88.50;33.30;;;;;;;;;;5014946;28;20450;-49
2021/12/16 09:49:32;;;;;;;101.20;36.80;;;;;;;;;;5015147;28;20907;-52
2021/12/16 09:51:59;;;;;;;111.43;34.40;;;;;;;;;;5015029;28;20395;-50
2021/12/16 09:54:27;;;;;;;97.77;36.87;;;;;;;;;;5014724;28;20399;-50
2021/12/16 09:56:55;;;;;;;107.57;37.77;;;;;;;;;;5014505;28;20473;-52
2021/12/16 09:59:23;;;;;;;92.00;34.90;;;;;;;;;;5014568;28;20824;-50
2021/12/16 10:01:50;;;;;;;101.83;37.23;;;;;;;;;;5014759;28;20387;-50
2021/12/16 10:04:20;;;;;;;99.67;37.30;;;;;;;;;;5014522;28;20461;-50
2021/12/16 10:06:49;;;;;;;94.33;34.07;;;;;;;;;;5013959;28;20423;-52
2021/12/16 10:09:15;;;;;;;108.63;34.60;;;;;;;;;;5014471;28;20391;-50
2021/12/16 10:11:44;;;;;;;110.00;37.53;;;;;;;;;;5014329;28;20447;-50
2021/12/16 10:19:31;;;;;;;101.43;36.00;;;;;;;;;;5014482;28;20414;-51
2021/12/16 10:22:16;;;;;;;87.33;35.33;;;;;;;;;;5014325;28;20834;-50
2021/12/16 10:24:44;;;;;;;102.13;36.40;;;;;;;;;;5013437;28;20589;-50
2021/12/16 10:27:18;;;;;;;90.07;34.53;;;;;;;;;;5014143;28;20411;-49
2021/12/16 10:29:46;;;;;;;102.27;39.10;;;;;;;;;;5014223;28;20422;-49
2021/12/16 10:32:34;;;;;;;97.20;35.27;;;;;;;;;;5015000;28;20399;-50
2021/12/16 10:35:01;;;;;;;97.37;36.53;;;;;;;;;;5011580;28;20395;-50
2021/12/16 10:37:38;;;;;;;94.57;33.50;;;;;;;;;;5012817;28;20537;-50
2021/12/16 10:40:28;;;;;;;97.80;37.80;;;;;;;;;;5012885;28;20941;-52
2021/12/16 10:42:54;;;;;;;94.87;34.80;;;;;;;;;;5012691;28;20399;-52
2021/12/16 10:45:39;;;;;;;103.67;36.47;;;;;;;;;;5011868;28;20496;-51
2021/12/16 10:48:19;;;;;;;105.57;35.00;;;;;;;;;;5012644;28;20410;-50
2021/12/16 10:50:47;;;;;;;113.00;36.60;;;;;;;;;;5009311;28;20797;-50
2021/12/16 10:53:13;;;;;;;93.53;36.43;;;;;;;;;;5012437;28;20874;-51
2021/12/16 10:56:00;;;;;;;95.80;33.23;;;;;;;;;;5011871;28;20424;-50
2021/12/16 10:58:45;;;;;;;106.50;36.37;;;;;;;;;;5012378;28;20407;-49
2021/12/16 11:01:30;;;;;;;99.73;36.83;;;;;;;;;;5012383;28;20422;-52
2021/12/16 11:03:56;;;;;;;104.70;37.60;;;;;;;;;;5012207;28;20457;-50
2021/12/16 11:06:26;;;;;;;95.67;37.43;;;;;;;;;;5011269;28;20827;-51
2021/12/16 11:08:52;;;;;;;90.10;35.20;;;;;;;;;;5012272;28;20403;-50
2021/12/16 11:11:26;;;;;;;104.00;34.70;;;;;;;;;;5012278;28;20402;-51
2021/12/16 11:14:01;;;;;;;98.60;33.97;;;;;;;;;;5012414;28;21104;-49
2021/12/16 11:16:36;;;;;;;96.47;34.67;;;;;;;;;;5011138;28;20414;-50
2021/12/16 11:19:03;;;;;;;79.27;33.10;;;;;;;;;;5012490;28;20430;-50
2021/12/16 11:21:44;;;;;;;105.90;34.80;;;;;;;;;;5012137;28;20457;-50
2021/12/16 11:24:21;;;;;;;82.30;31.77;;;;;;;;;;5011302;28;20508;-50
2021/12/16 11:26:47;;;;;;;88.93;33.10;;;;;;;;;;5010225;28;20932;-52
2021/12/16 11:29:13;;;;;;;74.90;30.13;;;;;;;;;;5011943;28;20422;-51
2021/12/16 11:31:40;;;;;;;87.97;32.20;;;;;;;;;;5011862;28;20407;-52
2021/12/16 11:34:09;;;;;;;82.23;30.93;;;;;;;;;;5012040;28;20956;-50
2021/12/16 11:36:37;;;;;;;89.47;31.57;;;;;;;;;;5011230;28;20435;-50
2021/12/16 11:39:09;;;;;;;92.33;35.53;;;;;;;;;;5012063;28;20493;-50
2021/12/16 11:41:39;;;;;;;97.53;33.40;;;;;;;;;;5011812;28;20415;-50
2021/12/16 11:44:18;;;;;;;104.40;35.80;;;;;;;;;;5011898;28;20946;-50
2021/12/16 11:46:44;;;;;;;92.13;33.60;;;;;;;;;;5013978;28;20442;-50
2021/12/16 11:49:29;;;;;;;87.63;32.10;;;;;;;;;;5015907;28;20403;-50
2021/12/16 11:51:58;;;;;;;81.73;32.00;;;;;;;;;;5015984;28;20510;-52
2021/12/16 11:54:25;;;;;;;90.17;31.40;;;;;;;;;;5016194;28;20403;-51
2021/12/16 11:56:51;;;;;;;92.10;33.47;;;;;;;;;;5015304;28;20427;-50
2021/12/16 11:59:22;;;;;;;94.57;33.37;;;;;;;;;;5015960;28;20403;-50
2021/12/16 12:01:48;;;;;;;97.00;31.27;;;;;;;;;;5015904;28;20771;-51
2021/12/16 12:04:15;;;;;;;76.80;31.10;;;;;;;;;;5015735;28;20501;-50
2021/12/16 12:06:45;;;;;;;80.43;33.97;;;;;;;;;;5014973;28;20939;-50
2021/12/16 12:09:12;;;;;;;83.17;31.83;;;;;;;;;;5015808;28;20402;-50
2021/12/16 12:11:43;;;;;;;85.77;31.30;;;;;;;;;;5015708;28;20750;-50
2021/12/16 12:14:24;;;;;;;85.93;32.93;;;;;;;;;;5026193;28;20791;-51
2021/12/16 12:16:52;;;;;;;86.27;32.20;;;;;;;;;;5014847;28;20467;-51
2021/12/16 12:19:25;;;;;;;89.43;32.10;;;;;;;;;;5014289;28;20417;-50
2021/12/16 12:21:56;;;;;;;90.60;33.20;;;;;;;;;;5014445;28;20426;-50
2021/12/16 12:24:32;;;;;;;88.33;33.10;;;;;;;;;;5010181;28;20520;-50
2021/12/16 12:27:04;;;;;;;88.10;32.70;;;;;;;;;;5015356;28;20445;-50
2021/12/16 12:29:32;;;;;;;97.20;35.40;;;;;;;;;;5015223;28;20418;-52
2021/12/16 12:32:06;;;;;;;94.43;34.83;;;;;;;;;;5015417;28;20432;-51
2021/12/16 12:34:33;;;;;;;91.67;34.43;;;;;;;;;;5014704;28;20414;-51
2021/12/16 12:37:00;;;;;;;97.17;33.90;;;;;;;;;;5014838;28;20427;-52
2021/12/16 12:39:28;;;;;;;102.07;35.23;;;;;;;;;;5015044;28;20403;-50
2021/12/16 12:41:55;;;;;;;85.60;33.67;;;;;;;;;;5015066;28;20406;-52
2021/12/16 12:44:21;;;;;;;94.57;34.10;;;;;;;;;;5014946;28;20444;-51
2021/12/16 12:46:48;;;;;;;95.23;34.87;;;;;;;;;;5014267;28;20796;-50
2021/12/16 12:49:18;;;;;;;88.20;33.77;;;;;;;;;;5015098;28;20441;-50
2021/12/16 12:51:49;;;;;;;93.10;35.03;;;;;;;;;;5014983;28;20402;-51
2021/12/16 12:54:27;;;;;;;98.67;37.03;;;;;;;;;;5014996;28;20895;-50
2021/12/16 12:56:55;;;;;;;96.17;32.10;;;;;;;;;;5012502;28;20568;-50
2021/12/16 12:59:31;;;;;;;93.40;32.47;;;;;;;;;;5014153;28;21081;-50
2021/12/16 13:01:58;;;;;;;90.47;33.90;;;;;;;;;;5014839;28;20822;-51
2021/12/16 13:04:24;;;;;;;87.03;31.13;;;;;;;;;;5014613;28;20447;-52
2021/12/16 13:07:00;;;;;;;84.13;33.27;;;;;;;;;;5014019;28;20426;-53
2021/12/16 13:09:26;;;;;;;80.23;30.80;;;;;;;;;;5014565;28;20395;-50
2021/12/16 13:11:53;;;;;;;91.57;32.57;;;;;;;;;;5014675;28;20767;-50
2021/12/16 13:14:36;;;;;;;82.40;30.90;;;;;;;;;;5014571;28;20415;-52
2021/12/16 13:28:21;;;;;;;103.77;34.83;;;;;;;;;;5014031;28;20465;-50
2021/12/16 13:30:55;;;;;;;87.43;30.77;;;;;;;;;;5014194;28;20397;-50
2021/12/16 13:33:26;;;;;;;101.40;33.20;;;;;;;;;;5014280;28;20391;-50
2021/12/16 13:36:07;;;;;;;89.57;33.20;;;;;;;;;;5013427;28;20450;-52
2021/12/16 13:38:41;;;;;;;101.37;34.37;;;;;;;;;;5014151;28;20388;-50
2021/12/16 13:41:28;;;;;;;94.60;33.60;;;;;;;;;;5014001;28;20399;-51
2021/12/16 13:44:01;;;;;;;92.27;32.17;;;;;;;;;;5014063;28;20824;-51
2021/12/16 13:46:44;;;;;;;101.90;35.53;;;;;;;;;;5013257;28;20423;-52
2021/12/16 14:03:38;;;;;;;108.10;34.00;;;;;;;;;;5013593;28;20953;-51
2021/12/16 14:06:22;;;;;;;90.97;33.07;;;;;;;;;;5012708;28;20462;-50
2021/12/16 14:08:51;;;;;;;94.13;34.73;;;;;;;;;;5013599;28;20420;-50
2021/12/16 14:14:43;;;;;;;89.23;32.27;;;;;;;;;;5013548;28;20491;-53
2021/12/16 14:17:40;;;;;;;92.60;33.40;;;;;;;;;;5013465;28;20423;-51
2021/12/16 14:23:22;;;;;;;96.40;33.40;;;;;;;;;;5013506;28;20406;-51
2021/12/16 14:31:53;;;;;;;96.87;33.60;;;;;;;;;;5013520;28;20614;-52
2021/12/16 14:42:15;;;;;;;107.90;35.33;;;;;;;;;;5032360;28;21139;-50
2021/12/16 14:50:12;;;;;;;103.07;32.53;;;;;;;;;;5032734;28;20403;-50
2021/12/16 14:52:38;;;;;;;88.50;32.17;;;;;;;;;;5032424;28;20420;-51
2021/12/16 14:55:13;;;;;;;85.50;31.83;;;;;;;;;;5031729;28;20402;-52
2021/12/16 14:57:49;;;;;;;94.80;34.97;;;;;;;;;;5032323;28;20901;-50
2021/12/16 15:00:16;;;;;;;88.63;33.13;;;;;;;;;;5032350;28;20491;-50
2021/12/16 15:02:43;;;;;;;84.63;30.00;;;;;;;;;;5032343;28;20894;-50
2021/12/16 15:05:31;;;;;;;97.27;33.33;;;;;;;;;;5031488;28;20481;-50
2021/12/16 15:08:08;;;;;;;95.97;36.43;;;;;;;;;;5032101;28;20484;-50
2021/12/16 15:10:35;;;;;;;99.80;34.17;;;;;;;;;;5032269;28;20399;-50
2021/12/16 15:13:09;;;;;;;97.60;33.27;;;;;;;;;;5032113;28;20399;-52
2021/12/16 15:16:21;;;;;;;109.77;33.90;;;;;;;;;;5031407;28;20413;-53
2021/12/16 15:37:43;;;;;;;97.57;35.17;;;;;;;;;;5031796;28;20398;-50
2021/12/16 15:40:18;;;;;;;99.30;33.70;;;;;;;;;;5031961;28;20463;-50
2021/12/16 15:42:49;;;;;;;99.10;33.63;;;;;;;;;;5031850;28;20398;-49
2021/12/16 15:45:22;;;;;;;96.80;34.77;;;;;;;;;;5030931;28;20466;-51
2021/12/16 15:48:09;;;;;;;96.67;34.90;;;;;;;;;;5031726;28;20916;-50
2021/12/16 15:50:37;;;;;;;105.57;35.20;;;;;;;;;;5031749;28;20406;-52
2021/12/16 15:53:06;;;;;;;99.23;36.87;;;;;;;;;;5031733;28;20445;-52
2021/12/16 15:55:41;;;;;;;95.20;35.73;;;;;;;;;;5031025;28;20417;-50
2021/12/16 15:58:10;;;;;;;107.83;37.00;;;;;;;;;;5031641;28;20398;-50
2021/12/16 16:00:38;;;;;;;104.37;36.07;;;;;;;;;;5031567;28;20434;-51
2021/12/16 16:03:05;;;;;;;87.10;32.27;;;;;;;;;;5031641;28;20410;-51
2021/12/16 16:05:33;;;;;;;94.87;34.17;;;;;;;;;;5030684;28;20541;-50
2021/12/16 16:08:00;;;;;;;92.67;33.97;;;;;;;;;;5031475;28;20423;-50
2021/12/16 16:10:26;;;;;;;102.13;35.60;;;;;;;;;;5031477;28;20405;-50
2021/12/16 16:12:52;;;;;;;109.77;34.17;;;;;;;;;;5031493;28;20398;-50
2021/12/16 16:15:20;;;;;;;109.17;34.53;;;;;;;;;;5030745;28;20856;-50
2021/12/16 16:18:35;;;;;;;97.03;32.50;;;;;;;;;;5031471;28;20414;-50
2021/12/16 16:20:42;;;;;;;84.77;32.00;;;;;;;;;;5020680;28;20422;-52
2021/12/16 16:23:11;;;;;;;91.70;32.70;;;;;;;;;;5031382;28;20752;-50
2021/12/16 16:25:37;;;;;;;94.80;32.97;;;;;;;;;;5030694;28;20540;-49
2021/12/16 16:28:04;;;;;;;102.13;34.10;;;;;;;;;;5031101;28;20425;-51
2021/12/16 16:30:31;;;;;;;90.17;34.20;;;;;;;;;;5031346;28;20489;-51
2021/12/16 16:33:01;;;;;;;82.80;31.80;;;;;;;;;;5031749;28;20402;-50
2021/12/16 16:35:29;;;;;;;89.07;30.43;;;;;;;;;;5034239;28;20433;-50
2021/12/16 16:38:06;;;;;;;84.63;31.33;;;;;;;;;;5034892;28;20632;-50
2021/12/16 16:40:36;;;;;;;89.37;31.57;;;;;;;;;;5035081;28;20433;-50
2021/12/16 16:43:02;;;;;;;89.70;30.77;;;;;;;;;;5035792;28;20441;-54
2021/12/16 16:45:30;;;;;;;87.17;29.53;;;;;;;;;;5035066;28;20461;-53
2021/12/16 16:48:05;;;;;;;82.43;29.97;;;;;;;;;;5035574;28;20398;-53
2021/12/16 16:50:32;;;;;;;88.10;32.93;;;;;;;;;;5035793;28;20909;-53
2021/12/16 16:52:58;;;;;;;92.20;31.30;;;;;;;;;;5035372;28;20402;-54
2021/12/16 16:55:31;;;;;;;83.43;30.50;;;;;;;;;;5034408;28;20433;-53
2021/12/16 16:58:05;;;;;;;92.97;33.07;;;;;;;;;;5035288;28;20795;-54
2021/12/16 17:00:39;;;;;;;76.93;31.20;;;;;;;;;;5035727;28;20459;-53
2021/12/16 17:03:08;;;;;;;83.07;32.40;;;;;;;;;;5035877;28;20866;-53
2021/12/16 17:05:36;;;;;;;91.00;31.83;;;;;;;;;;5034780;28;20492;-53
2021/12/16 17:08:04;;;;;;;83.70;31.70;;;;;;;;;;5035599;28;20450;-54
2021/12/16 17:10:46;;;;;;;95.27;32.30;;;;;;;;;;5036076;28;20394;-54
2021/12/16 17:13:18;;;;;;;87.13;32.53;;;;;;;;;;5035911;28;20479;-54
2021/12/16 17:18:22;;;;;;;87.43;32.80;;;;;;;;;;5038731;28;20450;-52
2021/12/16 17:20:49;;;;;;;79.30;32.13;;;;;;;;;;5038554;28;20394;-53
2021/12/16 17:23:15;;;;;;;92.47;32.70;;;;;;;;;;5038763;28;20425;-53
2021/12/16 17:25:42;;;;;;;101.30;31.20;;;;;;;;;;5038071;28;20450;-53
2021/12/16 17:28:08;;;;;;;97.77;32.87;;;;;;;;;;5038714;28;20452;-52
2021/12/16 17:30:36;;;;;;;91.20;31.70;;;;;;;;;;5038582;28;20394;-53
2021/12/16 17:33:04;;;;;;;89.20;33.00;;;;;;;;;;5038944;28;20731;-53
2021/12/16 17:35:37;;;;;;;90.53;31.80;;;;;;;;;;5038211;28;20429;-53
2021/12/16 17:38:10;;;;;;;107.23;34.77;;;;;;;;;;5038280;28;20417;-53
2021/12/16 17:40:44;;;;;;;86.90;33.20;;;;;;;;;;5038420;28;20403;-53
2021/12/16 17:43:22;;;;;;;91.50;32.00;;;;;;;;;;5037298;28;20422;-53
2021/12/16 17:45:50;;;;;;;98.30;35.40;;;;;;;;;;5037231;28;20444;-53
2021/12/16 17:48:19;;;;;;;106.37;33.50;;;;;;;;;;5037749;28;20395;-52
2021/12/16 17:50:47;;;;;;;117.80;36.17;;;;;;;;;;5038170;28;20405;-52
2021/12/16 17:53:15;;;;;;;92.83;34.93;;;;;;;;;;5037662;28;20427;-53
2021/12/16 17:55:43;;;;;;;102.67;37.43;;;;;;;;;;5036496;28;20422;-53
2021/12/16 17:58:11;;;;;;;103.03;36.90;;;;;;;;;;5037496;28;20498;-52
2021/12/16 18:00:43;;;;;;;105.97;35.97;;;;;;;;;;5037764;28;20413;-53
2021/12/16 18:03:14;;;;;;;94.10;34.50;;;;;;;;;;5036914;28;20398;-53
2021/12/16 18:05:42;;;;;;;104.33;34.03;;;;;;;;;;5035726;28;20487;-52
2021/12/16 18:08:08;;;;;;;93.00;31.90;;;;;;;;;;5037743;28;20890;-53
2021/12/16 18:10:34;;;;;;;92.37;34.70;;;;;;;;;;5036197;28;20406;-53
2021/12/16 18:13:00;;;;;;;89.90;33.97;;;;;;;;;;5037045;28;20925;-53
2021/12/16 18:15:28;;;;;;;91.73;33.63;;;;;;;;;;5036233;28;20431;-53
2021/12/16 18:17:57;;;;;;;97.97;33.83;;;;;;;;;;5037511;28;20776;-53
2021/12/16 18:20:28;;;;;;;86.27;33.43;;;;;;;;;;5037800;28;20429;-52
2021/12/16 18:22:58;;;;;;;87.60;33.67;;;;;;;;;;5037581;28;20410;-53